Time;durP1;ratioP1;P1;durP2;ratioP2;P2;SDS_P1;SDS_P2;PMS_P1;PMS_P2;Temp;Humidity;BMP_temperature;BMP_pressure;BME280_temperature;BME280_humidity;BME280_pressure;Samples;Min_cycle;Max_cycle;Signal;HPM_P1;HPM_P2
2023/04/07 00:01:32;;;;;;;;;;;;;;;;;;4984818;28;19922;-63
2023/04/07 00:04:00;;;;;;;;;;;;;;;;;;4979243;28;19924;-67
2023/04/07 00:06:26;;;;;;;;;;;;;;;;;;4974947;28;20006;-67
2023/04/07 00:08:54;;;;;;;;;;;;;;;;;;4992697;28;19972;-67
2023/04/07 00:11:19;;;;;;;;;;;;;;;;;;4975914;28;19921;-64
2023/04/07 00:13:47;;;;;;;;;;;;;;;;;;4983445;28;19975;-69
2023/04/07 00:16:16;;;;;;;;;;;;;;;;;;4972310;28;19992;-68
2023/04/07 00:18:41;;;;;;;;;;;;;;;;;;4984513;28;20000;-69
2023/04/07 00:21:06;;;;;;;;;;;;;;;;;;4969294;28;19968;-68
2023/04/07 00:23:32;;;;;;;;;;;;;;;;;;4976422;28;20007;-68
2023/04/07 00:26:00;;;;;;;;;;;;;;;;;;4991222;28;19983;-68
2023/04/07 00:28:25;;;;;;;;;;;;;;;;;;4991944;28;19917;-68
2023/04/07 00:30:53;;;;;;;;;;;;;;;;;;4982992;28;19925;-67
2023/04/07 00:33:18;;;;;;;;;;;;;;;;;;4984107;28;20000;-68
2023/04/07 00:35:46;;;;;;;;;;;;;;;;;;4985862;28;19944;-68
2023/04/07 00:38:15;;;;;;;;;;;;;;;;;;4992447;28;20569;-68
2023/04/07 00:40:40;;;;;;;;;;;;;;;;;;4983687;28;19953;-68
2023/04/07 00:43:05;;;;;;;;;;;;;;;;;;4983689;28;20023;-68
2023/04/07 00:45:33;;;;;;;;;;;;;;;;;;4983633;28;19921;-68
2023/04/07 00:47:58;;;;;;;;;;;;;;;;;;4981314;28;19975;-68
2023/04/07 00:50:26;;;;;;;;;;;;;;;;;;4966976;28;20285;-69
2023/04/07 00:52:57;;;;;;;;;;;;;;;;;;4981184;28;20432;-68
2023/04/07 00:55:25;;;;;;;;;;;;;;;;;;4986886;28;20569;-70
2023/04/07 00:57:53;;;;;;;;;;;;;;;;;;4985018;28;19924;-70
2023/04/07 01:00:23;;;;;;;;;;;;;;;;;;4975583;28;19921;-70
2023/04/07 01:02:49;;;;;;;;;;;;;;;;;;4985621;28;19921;-70
2023/04/07 01:05:14;;;;;;;;;;;;;;;;;;4970836;28;20019;-70
2023/04/07 01:07:40;;;;;;;;;;;;;;;;;;4970261;28;20368;-71
2023/04/07 01:10:05;;;;;;;;;;;;;;;;;;4983749;28;20247;-71
2023/04/07 01:12:30;;;;;;;;;;;;;;;;;;4984208;28;19921;-71
2023/04/07 01:14:58;;;;;;;;;;;;;;;;;;4982470;28;19940;-70
2023/04/07 01:17:24;;;;;;;;;;;;;;;;;;4985659;28;19921;-70
2023/04/07 01:19:49;;;;;;;;;;;;;;;;;;4995387;28;19968;-70
2023/04/07 01:22:15;;;;;;;;;;;;;;;;;;4985358;28;19944;-70
2023/04/07 01:24:40;;;;;;;;;;;;;;;;;;4995892;28;19968;-70
2023/04/07 01:27:08;;;;;;;;;;;;;;;;;;4987556;28;19976;-69
2023/04/07 01:29:34;;;;;;;;;;;;;;;;;;4989396;28;20019;-71
2023/04/07 01:32:02;;;;;;;;;;;;;;;;;;4995899;28;20177;-71
2023/04/07 01:34:30;;;;;;;;;;;;;;;;;;4981038;28;19929;-71
2023/04/07 01:36:55;;;;;;;;;;;;;;;;;;4986632;28;19925;-71
2023/04/07 01:39:21;;;;;;;;;;;;;;;;;;4985042;28;20440;-70
2023/04/07 01:41:46;;;;;;;;;;;;;;;;;;4988023;28;19922;-70
2023/04/07 01:44:12;;;;;;;;;;;;;;;;;;4979053;28;19917;-67
2023/04/07 01:46:37;;;;;;;;;;;;;;;;;;4994542;28;19960;-69
2023/04/07 01:49:03;;;;;;;;;;;;;;;;;;4989282;28;19917;-70
2023/04/07 01:51:28;;;;;;;;;;;;;;;;;;4989859;28;20027;-70
2023/04/07 01:53:53;;;;;;;;;;;;;;;;;;4988575;28;19921;-71
2023/04/07 01:56:19;;;;;;;;;;;;;;;;;;4986540;28;19929;-72
2023/04/07 01:58:44;;;;;;;;;;;;;;;;;;4986468;28;21840;-70
2023/04/07 02:01:10;;;;;;;;;;;;;;;;;;4985996;28;19921;-71
2023/04/07 02:03:37;;;;;;;;;;;;;;;;;;4989063;28;19928;-70
2023/04/07 02:06:03;;;;;;;;;;;;;;;;;;4986643;28;19936;-69
2023/04/07 02:08:28;;;;;;;;;;;;;;;;;;4984665;28;20589;-70
2023/04/07 02:10:54;;;;;;;;;;;;;;;;;;4980556;28;20052;-70
2023/04/07 02:13:19;;;;;;;;;;;;;;;;;;4981762;28;19917;-71
2023/04/07 02:15:45;;;;;;;;;;;;;;;;;;4968802;28;19932;-70
2023/04/07 02:18:11;;;;;;;;;;;;;;;;;;4982172;28;19928;-69
2023/04/07 02:20:40;;;;;;;;;;;;;;;;;;4988727;28;20505;-69
2023/04/07 02:23:05;;;;;;;;;;;;;;;;;;4983966;28;20145;-70
2023/04/07 02:25:30;;;;;;;;;;;;;;;;;;4984311;28;19964;-70
2023/04/07 02:27:56;;;;;;;;;;;;;;;;;;4992915;28;19918;-69
2023/04/07 02:30:24;;;;;;;;;;;;;;;;;;4970227;28;19917;-69
2023/04/07 02:32:49;;;;;;;;;;;;;;;;;;4986930;28;19928;-69
2023/04/07 02:35:17;;;;;;;;;;;;;;;;;;4972142;28;19940;-70
2023/04/07 02:37:42;;;;;;;;;;;;;;;;;;4985455;28;19932;-70
2023/04/07 02:40:07;;;;;;;;;;;;;;;;;;5002054;28;19921;-71
2023/04/07 02:42:33;;;;;;;;;;;;;;;;;;4985458;28;20000;-70
2023/04/07 02:45:00;;;;;;;;;;;;;;;;;;4987384;28;19921;-71
2023/04/07 02:47:26;;;;;;;;;;;;;;;;;;4992440;28;19932;-69
2023/04/07 02:49:51;;;;;;;;;;;;;;;;;;4987347;28;19932;-71
2023/04/07 02:52:17;;;;;;;;;;;;;;;;;;4982542;28;19960;-72
2023/04/07 02:54:42;;;;;;;;;;;;;;;;;;4986092;28;20119;-71
2023/04/07 02:57:08;;;;;;;;;;;;;;;;;;4988439;28;19925;-70
2023/04/07 02:59:33;;;;;;;;;;;;;;;;;;4988146;28;20148;-72
2023/04/07 03:01:59;;;;;;;;;;;;;;;;;;4986860;28;20025;-70
2023/04/07 03:04:24;;;;;;;;;;;;;;;;;;4983284;28;19921;-71
2023/04/07 03:06:50;;;;;;;;;;;;;;;;;;4988370;28;20044;-72
2023/04/07 03:09:15;;;;;;;;;;;;;;;;;;4977964;28;19924;-72
2023/04/07 03:11:40;;;;;;;;;;;;;;;;;;4983731;28;19921;-74
2023/04/07 03:14:06;;;;;;;;;;;;;;;;;;4986293;28;20230;-74
2023/04/07 03:16:32;;;;;;;;;;;;;;;;;;4985272;28;21526;-74
2023/04/07 03:18:57;;;;;;;;;;;;;;;;;;4977155;28;19918;-73
2023/04/07 03:21:22;;;;;;;;;;;;;;;;;;4985590;28;20296;-71
2023/04/07 03:23:50;;;;;;;;;;;;;;;;;;4986412;28;19980;-68
2023/04/07 03:26:16;;;;;;;;;;;;;;;;;;4978526;28;19921;-73
2023/04/07 03:28:41;;;;;;;;;;;;;;;;;;4972697;28;21872;-70
2023/04/07 03:31:07;;;;;;;;;;;;;;;;;;4976767;28;19917;-71
2023/04/07 03:33:32;;;;;;;;;;;;;;;;;;4986623;28;19928;-72
2023/04/07 03:35:58;;;;;;;;;;;;;;;;;;4977843;28;19917;-72
2023/04/07 03:38:23;;;;;;;;;;;;;;;;;;4986042;28;20486;-72
2023/04/07 03:40:49;;;;;;;;;;;;;;;;;;4982530;28;20336;-71
2023/04/07 03:43:15;;;;;;;;;;;;;;;;;;4992150;28;19922;-71
2023/04/07 03:45:40;;;;;;;;;;;;;;;;;;4994095;28;19964;-72
2023/04/07 03:48:09;;;;;;;;;;;;;;;;;;4986474;28;20011;-70
2023/04/07 03:50:35;;;;;;;;;;;;;;;;;;4993800;28;20008;-70
2023/04/07 03:53:00;;;;;;;;;;;;;;;;;;4967178;28;19928;-70
2023/04/07 03:55:26;;;;;;;;;;;;;;;;;;4985721;28;19922;-71
2023/04/07 03:57:51;;;;;;;;;;;;;;;;;;4970275;28;20622;-69
2023/04/07 04:00:16;;;;;;;;;;;;;;;;;;4984168;28;20174;-69
2023/04/07 04:02:42;;;;;;;;;;;;;;;;;;4983848;28;19925;-69
2023/04/07 04:05:07;;;;;;;;;;;;;;;;;;4985166;28;19925;-69
2023/04/07 04:07:33;;;;;;;;;;;;;;;;;;4969858;28;20469;-70
2023/04/07 04:09:58;;;;;;;;;;;;;;;;;;4985729;28;20427;-69
2023/04/07 04:12:24;;;;;;;;;;;;;;;;;;4985009;28;20407;-69
2023/04/07 04:14:49;;;;;;;;;;;;;;;;;;4985301;28;20727;-70
2023/04/07 04:20:31;;;;;;;;;;;;;;;;;;4983953;28;19928;-73
2023/04/07 04:22:56;;;;;;;;;;;;;;;;;;4975482;28;19941;-69
2023/04/07 04:25:24;;;;;;;;;;;;;;;;;;4983640;28;19925;-70
2023/04/07 04:27:50;;;;;;;;;;;;;;;;;;4976560;28;20587;-70
2023/04/07 04:30:15;;;;;;;;;;;;;;;;;;4992806;28;19918;-70
2023/04/07 04:32:40;;;;;;;;;;;;;;;;;;4970621;28;19922;-70
2023/04/07 04:35:08;;;;;;;;;;;;;;;;;;4977272;28;20021;-71
2023/04/07 04:37:39;;;;;;;;;;;;;;;;;;4981407;28;20484;-67
2023/04/07 04:40:07;;;;;;;;;;;;;;;;;;4996552;28;20435;-70
2023/04/07 04:42:35;;;;;;;;;;;;;;;;;;4983664;28;20473;-70
2023/04/07 04:45:00;;;;;;;;;;;;;;;;;;4991878;28;20253;-70
2023/04/07 04:47:28;;;;;;;;;;;;;;;;;;4983505;28;19936;-71
2023/04/07 04:49:54;;;;;;;;;;;;;;;;;;4977381;28;21835;-69
2023/04/07 04:52:19;;;;;;;;;;;;;;;;;;4973850;28;20579;-69
2023/04/07 04:54:45;;;;;;;;;;;;;;;;;;4988954;28;19932;-69
2023/04/07 04:57:10;;;;;;;;;;;;;;;;;;4985691;28;20017;-70
2023/04/07 04:59:36;;;;;;;;;;;;;;;;;;4973064;28;20270;-70
2023/04/07 05:02:01;;;;;;;;;;;;;;;;;;4990372;28;20029;-69
2023/04/07 05:04:27;;;;;;;;;;;;;;;;;;4984809;28;20244;-69
2023/04/07 05:06:52;;;;;;;;;;;;;;;;;;4974088;28;19929;-70
2023/04/07 05:09:17;;;;;;;;;;;;;;;;;;4986136;28;19921;-71
2023/04/07 05:11:43;;;;;;;;;;;;;;;;;;4979373;28;20397;-71
2023/04/07 05:14:08;;;;;;;;;;;;;;;;;;4978175;28;20341;-70
2023/04/07 05:16:33;;;;;;;;;;;;;;;;;;4987764;28;20853;-70
2023/04/07 05:18:59;;;;;;;;;;;;;;;;;;4997017;28;19921;-71
2023/04/07 05:21:25;;;;;;;;;;;;;;;;;;4987116;28;19972;-70
2023/04/07 05:23:51;;;;;;;;;;;;;;;;;;4981425;28;19922;-70
2023/04/07 05:26:16;;;;;;;;;;;;;;;;;;4986557;28;19925;-68
2023/04/07 05:28:42;;;;;;;;;;;;;;;;;;4986009;28;19964;-70
2023/04/07 05:31:07;;;;;;;;;;;;;;;;;;4985072;28;19921;-71
2023/04/07 05:33:33;;;;;;;;;;;;;;;;;;4990009;28;19941;-72
2023/04/07 05:35:59;;;;;;;;;;;;;;;;;;4986569;28;21942;-69
2023/04/07 05:38:24;;;;;;;;;;;;;;;;;;4983947;28;19937;-71
2023/04/07 05:40:50;;;;;;;;;;;;;;;;;;4970524;28;20003;-69
2023/04/07 05:43:15;;;;;;;;;;;;;;;;;;4988517;28;19918;-70
2023/04/07 05:45:41;;;;;;;;;;;;;;;;;;4991451;28;19926;-71
2023/04/07 05:48:06;;;;;;;;;;;;;;;;;;4984548;28;19926;-69
2023/04/07 05:50:31;;;;;;;;;;;;;;;;;;4986620;28;21881;-69
2023/04/07 05:52:57;;;;;;;;;;;;;;;;;;4987353;28;20219;-72
2023/04/07 05:55:22;;;;;;;;;;;;;;;;;;4978712;28;19925;-71
2023/04/07 05:57:48;;;;;;;;;;;;;;;;;;4987986;28;19948;-70
2023/04/07 06:00:13;;;;;;;;;;;;;;;;;;4989425;28;19917;-70
2023/04/07 06:02:39;;;;;;;;;;;;;;;;;;4972733;28;20470;-70
2023/04/07 06:05:04;;;;;;;;;;;;;;;;;;4977776;28;19918;-68
2023/04/07 06:07:30;;;;;;;;;;;;;;;;;;4969912;28;21662;-69
2023/04/07 06:09:55;;;;;;;;;;;;;;;;;;4976844;28;20670;-71
2023/04/07 06:12:20;;;;;;;;;;;;;;;;;;4973434;28;19922;-71
2023/04/07 06:14:46;;;;;;;;;;;;;;;;;;4982764;28;19972;-71
2023/04/07 06:17:11;;;;;;;;;;;;;;;;;;4979550;28;19929;-71
2023/04/07 06:19:36;;;;;;;;;;;;;;;;;;4978626;28;20011;-70
2023/04/07 06:22:03;;;;;;;;;;;;;;;;;;4984891;28;19956;-68
2023/04/07 06:24:28;;;;;;;;;;;;;;;;;;4985694;28;20385;-70
2023/04/07 06:26:55;;;;;;;;;;;;;;;;;;4987731;28;20003;-69
2023/04/07 06:32:37;;;;;;;;;;;;;;;;;;4986300;28;20549;-69
2023/04/07 06:35:02;;;;;;;;;;;;;;;;;;4984718;28;19940;-68
2023/04/07 06:37:28;;;;;;;;;;;;;;;;;;4984737;28;19928;-71
2023/04/07 06:39:53;;;;;;;;;;;;;;;;;;4987489;28;19965;-72
2023/04/07 06:42:21;;;;;;;;;;;;;;;;;;4983175;28;21829;-69
2023/04/07 06:44:49;;;;;;;;;;;;;;;;;;4986374;28;19921;-70
2023/04/07 06:47:15;;;;;;;;;;;;;;;;;;4993219;28;19925;-68
2023/04/07 06:49:40;;;;;;;;;;;;;;;;;;4987252;28;21440;-71
2023/04/07 06:55:22;;;;;;;;;;;;;;;;;;4986241;28;20041;-72
2023/04/07 06:57:51;;;;;;;;;;;;;;;;;;4971156;28;20292;-70
2023/04/07 07:00:16;;;;;;;;;;;;;;;;;;4987319;28;19918;-71
2023/04/07 07:02:42;;;;;;;;;;;;;;;;;;4991721;28;20282;-72
2023/04/07 07:05:07;;;;;;;;;;;;;;;;;;4982741;28;19917;-70
2023/04/07 07:07:32;;;;;;;;;;;;;;;;;;4975774;28;19929;-71
2023/04/07 07:09:57;;;;;;;;;;;;;;;;;;4976688;28;19964;-73
2023/04/07 07:12:25;;;;;;;;;;;;;;;;;;4983178;28;19921;-74
2023/04/07 07:14:53;;;;;;;;;;;;;;;;;;4975976;28;19917;-74
2023/04/07 07:17:21;;;;;;;;;;;;;;;;;;4980305;28;20022;-71
2023/04/07 07:19:47;;;;;;;;;;;;;;;;;;4977706;28;20308;-74
2023/04/07 07:22:15;;;;;;;;;;;;;;;;;;4986283;28;19921;-73
2023/04/07 07:24:43;;;;;;;;;;;;;;;;;;4985827;28;19917;-74
2023/04/07 07:27:08;;;;;;;;;;;;;;;;;;4983088;28;19936;-73
2023/04/07 07:29:35;;;;;;;;;;;;;;;;;;4985463;28;20436;-74
2023/04/07 07:32:04;;;;;;;;;;;;;;;;;;4983939;28;19976;-73
2023/04/07 07:34:29;;;;;;;;;;;;;;;;;;4992510;28;20345;-74
2023/04/07 07:36:58;;;;;;;;;;;;;;;;;;4991105;28;20000;-74
2023/04/07 07:39:23;;;;;;;;;;;;;;;;;;4983440;28;19940;-74
2023/04/07 07:41:50;;;;;;;;;;;;;;;;;;4984547;28;20404;-74
2023/04/07 07:44:15;;;;;;;;;;;;;;;;;;4984535;28;20436;-73
2023/04/07 07:46:43;;;;;;;;;;;;;;;;;;4976384;28;19925;-76
2023/04/07 07:49:08;;;;;;;;;;;;;;;;;;4985047;28;20391;-74
2023/04/07 07:51:36;;;;;;;;;;;;;;;;;;4983451;28;19921;-74
2023/04/07 07:54:04;;;;;;;;;;;;;;;;;;4976097;28;19921;-76
2023/04/07 07:56:30;;;;;;;;;;;;;;;;;;4981809;28;20329;-76
2023/04/07 07:58:55;;;;;;;;;;;;;;;;;;4971560;28;20228;-78
2023/04/07 08:01:23;;;;;;;;;;;;;;;;;;4996942;28;20004;-78
2023/04/07 08:03:51;;;;;;;;;;;;;;;;;;4987851;28;20364;-75
2023/04/07 08:06:19;;;;;;;;;;;;;;;;;;4993226;28;19933;-76
2023/04/07 08:08:44;;;;;;;;;;;;;;;;;;4971514;28;19922;-76
2023/04/07 08:11:10;;;;;;;;;;;;;;;;;;4984454;28;20878;-76
2023/04/07 08:13:38;;;;;;;;;;;;;;;;;;4986139;28;19972;-76
2023/04/07 08:16:06;;;;;;;;;;;;;;;;;;4993126;28;19921;-73
2023/04/07 08:18:34;;;;;;;;;;;;;;;;;;4984071;28;20009;-74
2023/04/07 08:21:02;;;;;;;;;;;;;;;;;;4981850;28;19925;-71
2023/04/07 08:23:27;;;;;;;;;;;;;;;;;;4977030;28;19932;-70
2023/04/07 08:25:58;;;;;;;;;;;;;;;;;;4989301;28;19921;-72
2023/04/07 08:28:23;;;;;;;;;;;;;;;;;;4981673;28;20549;-72
2023/04/07 08:30:49;;;;;;;;;;;;;;;;;;4978855;28;19968;-71
2023/04/07 08:33:14;;;;;;;;;;;;;;;;;;4984856;28;20549;-71
2023/04/07 08:35:39;;;;;;;;;;;;;;;;;;4959506;28;19925;-69
2023/04/07 08:38:06;;;;;;;;;;;;;;;;;;4982953;28;19917;-69
2023/04/07 08:40:31;;;;;;;;;;;;;;;;;;4992311;28;20094;-68
2023/04/07 08:43:00;;;;;;;;;;;;;;;;;;4984038;28;19943;-70
2023/04/07 08:45:27;;;;;;;;;;;;;;;;;;4983838;28;19929;-68
2023/04/07 08:47:58;;;;;;;;;;;;;;;;;;4983149;28;20365;-67
2023/04/07 08:50:24;;;;;;;;;;;;;;;;;;4984628;28;20131;-68
2023/04/07 08:52:49;;;;;;;;;;;;;;;;;;4974900;28;19925;-68
2023/04/07 08:55:15;;;;;;;;;;;;;;;;;;4991853;28;20100;-68
2023/04/07 08:57:40;;;;;;;;;;;;;;;;;;4973315;28;19957;-68
2023/04/07 09:00:06;;;;;;;;;;;;;;;;;;4992076;28;20004;-66
2023/04/07 09:02:31;;;;;;;;;;;;;;;;;;4984454;28;19945;-67
2023/04/07 09:04:56;;;;;;;;;;;;;;;;;;4992234;28;19928;-70
2023/04/07 09:07:22;;;;;;;;;;;;;;;;;;4981937;28;21511;-68
2023/04/07 09:09:47;;;;;;;;;;;;;;;;;;4984006;28;19918;-69
2023/04/07 09:12:13;;;;;;;;;;;;;;;;;;4984237;28;20010;-69
2023/04/07 09:14:38;;;;;;;;;;;;;;;;;;4991196;28;19952;-69
2023/04/07 09:17:04;;;;;;;;;;;;;;;;;;4970376;28;19921;-69
2023/04/07 09:19:29;;;;;;;;;;;;;;;;;;4990516;28;19921;-68
2023/04/07 09:21:55;;;;;;;;;;;;;;;;;;4982838;28;20003;-68
2023/04/07 09:24:23;;;;;;;;;;;;;;;;;;4982049;28;19972;-65
2023/04/07 09:26:48;;;;;;;;;;;;;;;;;;4980624;28;20405;-68
2023/04/07 09:29:14;;;;;;;;;;;;;;;;;;4986076;28;19922;-69
2023/04/07 09:31:39;;;;;;;;;;;;;;;;;;4969873;28;19925;-67
2023/04/07 09:34:05;;;;;;;;;;;;;;;;;;4984632;28;19933;-68
2023/04/07 09:36:30;;;;;;;;;;;;;;;;;;4979298;28;19929;-68
2023/04/07 09:38:56;;;;;;;;;;;;;;;;;;4984620;28;19976;-68
2023/04/07 09:41:24;;;;;;;;;;;;;;;;;;4986506;28;19967;-69
2023/04/07 09:43:49;;;;;;;;;;;;;;;;;;4987635;28;20039;-67
2023/04/07 09:46:15;;;;;;;;;;;;;;;;;;4986179;28;20389;-68
2023/04/07 09:48:40;;;;;;;;;;;;;;;;;;4994353;28;19929;-68
2023/04/07 09:51:06;;;;;;;;;;;;;;;;;;4988809;28;20040;-67
2023/04/07 09:53:31;;;;;;;;;;;;;;;;;;4977635;28;19952;-69
2023/04/07 09:55:57;;;;;;;;;;;;;;;;;;4985684;28;19922;-69
2023/04/07 09:58:22;;;;;;;;;;;;;;;;;;4984011;28;19918;-68
2023/04/07 10:00:47;;;;;;;;;;;;;;;;;;4984781;28;20020;-69
2023/04/07 10:03:13;;;;;;;;;;;;;;;;;;5002700;28;20281;-69
2023/04/07 10:05:38;;;;;;;;;;;;;;;;;;4985999;28;19943;-68
2023/04/07 10:08:04;;;;;;;;;;;;;;;;;;4984778;28;20397;-68
2023/04/07 10:10:31;;;;;;;;;;;;;;;;;;4987411;28;19925;-69
2023/04/07 10:12:57;;;;;;;;;;;;;;;;;;4970367;28;20264;-69
2023/04/07 10:15:23;;;;;;;;;;;;;;;;;;4987710;28;19941;-69
2023/04/07 10:17:48;;;;;;;;;;;;;;;;;;4986016;28;21377;-69
2023/04/07 10:20:14;;;;;;;;;;;;;;;;;;4977137;28;19948;-67
2023/04/07 10:22:39;;;;;;;;;;;;;;;;;;4984952;28;19917;-68
2023/04/07 10:25:05;;;;;;;;;;;;;;;;;;4985233;28;20181;-67
2023/04/07 10:27:30;;;;;;;;;;;;;;;;;;4983554;28;19921;-68
2023/04/07 10:29:58;;;;;;;;;;;;;;;;;;4991382;28;19922;-69
2023/04/07 10:32:24;;;;;;;;;;;;;;;;;;4986531;28;19924;-69
2023/04/07 10:34:49;;;;;;;;;;;;;;;;;;4972709;28;19921;-69
2023/04/07 10:37:17;;;;;;;;;;;;;;;;;;4986164;28;20047;-68
2023/04/07 10:39:43;;;;;;;;;;;;;;;;;;4986469;28;19928;-68
2023/04/07 10:42:08;;;;;;;;;;;;;;;;;;4984342;28;19922;-69
2023/04/07 10:44:33;;;;;;;;;;;;;;;;;;4976680;28;19985;-69
2023/04/07 10:46:59;;;;;;;;;;;;;;;;;;4984459;28;20470;-68
2023/04/07 10:49:24;;;;;;;;;;;;;;;;;;4978128;28;20309;-68
2023/04/07 10:51:49;;;;;;;;;;;;;;;;;;4984836;28;20008;-69
2023/04/07 10:54:19;;;;;;;;;;;;;;;;;;4987025;28;21616;-68
2023/04/07 10:56:44;;;;;;;;;;;;;;;;;;4992823;28;19917;-68
2023/04/07 10:59:10;;;;;;;;;;;;;;;;;;4986161;28;19918;-69
2023/04/07 11:01:35;;;;;;;;;;;;;;;;;;4986642;28;19936;-69
2023/04/07 11:04:06;;;;;;;;;;;;;;;;;;4980119;28;20389;-70
2023/04/07 11:06:31;;;;;;;;;;;;;;;;;;4971432;28;20464;-68
2023/04/07 11:08:57;;;;;;;;;;;;;;;;;;4985525;28;19921;-69
2023/04/07 11:11:22;;;;;;;;;;;;;;;;;;4986394;28;19917;-69
2023/04/07 11:13:50;;;;;;;;;;;;;;;;;;4984965;28;20405;-66
2023/04/07 11:16:16;;;;;;;;;;;;;;;;;;5001427;28;20772;-69
2023/04/07 11:18:41;;;;;;;;;;;;;;;;;;4986328;28;19917;-68
2023/04/07 11:21:07;;;;;;;;;;;;;;;;;;4982267;28;20039;-69
2023/04/07 11:23:32;;;;;;;;;;;;;;;;;;4986569;28;19918;-68
2023/04/07 11:25:57;;;;;;;;;;;;;;;;;;4984542;28;20023;-68
2023/04/07 11:28:23;;;;;;;;;;;;;;;;;;4976383;28;20377;-69
2023/04/07 11:30:48;;;;;;;;;;;;;;;;;;4967766;28;19929;-68
2023/04/07 11:33:14;;;;;;;;;;;;;;;;;;4992406;28;19922;-69
2023/04/07 11:35:39;;;;;;;;;;;;;;;;;;4987329;28;19929;-70
2023/04/07 11:38:05;;;;;;;;;;;;;;;;;;4984217;28;19918;-68
2023/04/07 11:40:31;;;;;;;;;;;;;;;;;;4975672;28;20000;-69
2023/04/07 11:42:56;;;;;;;;;;;;;;;;;;4967938;28;20533;-69
2023/04/07 11:45:26;;;;;;;;;;;;;;;;;;4983014;28;20594;-68
2023/04/07 11:47:51;;;;;;;;;;;;;;;;;;4984260;28;20433;-69
2023/04/07 11:50:17;;;;;;;;;;;;;;;;;;4983566;28;20024;-69
2023/04/07 11:52:42;;;;;;;;;;;;;;;;;;4978323;28;20096;-67
2023/04/07 11:55:08;;;;;;;;;;;;;;;;;;4986590;28;19922;-69
2023/04/07 11:57:34;;;;;;;;;;;;;;;;;;4993082;28;19928;-70
2023/04/07 11:59:59;;;;;;;;;;;;;;;;;;4968068;28;20017;-69
2023/04/07 12:02:25;;;;;;;;;;;;;;;;;;4982647;28;20377;-70
2023/04/07 12:04:50;;;;;;;;;;;;;;;;;;4985420;28;19927;-67
2023/04/07 12:07:15;;;;;;;;;;;;;;;;;;4983511;28;19929;-69
2023/04/07 12:09:41;;;;;;;;;;;;;;;;;;4984881;28;19966;-70
2023/04/07 12:12:06;;;;;;;;;;;;;;;;;;4986041;28;19918;-70
2023/04/07 12:14:32;;;;;;;;;;;;;;;;;;4983832;28;19929;-69
2023/04/07 12:16:57;;;;;;;;;;;;;;;;;;4993138;28;19917;-70
2023/04/07 12:19:25;;;;;;;;;;;;;;;;;;4984478;28;19924;-69
2023/04/07 12:21:51;;;;;;;;;;;;;;;;;;4975366;28;20576;-69
2023/04/07 12:24:16;;;;;;;;;;;;;;;;;;4975663;28;19917;-71
2023/04/07 12:26:42;;;;;;;;;;;;;;;;;;4982151;28;20542;-70
2023/04/07 12:29:07;;;;;;;;;;;;;;;;;;4985400;28;19925;-70
2023/04/07 12:31:33;;;;;;;;;;;;;;;;;;4966505;28;19921;-70
2023/04/07 12:34:01;;;;;;;;;;;;;;;;;;4973239;28;20291;-70
2023/04/07 12:36:26;;;;;;;;;;;;;;;;;;4982485;28;20000;-69
2023/04/07 12:38:52;;;;;;;;;;;;;;;;;;4983965;28;20351;-70
2023/04/07 12:41:20;;;;;;;;;;;;;;;;;;4983982;28;19924;-69
2023/04/07 12:43:49;;;;;;;;;;;;;;;;;;4986350;28;20369;-70
2023/04/07 12:46:14;;;;;;;;;;;;;;;;;;4990272;28;19991;-70
2023/04/07 12:48:40;;;;;;;;;;;;;;;;;;4985095;28;20369;-69
2023/04/07 12:51:05;;;;;;;;;;;;;;;;;;4985176;28;19918;-70
2023/04/07 12:53:31;;;;;;;;;;;;;;;;;;4971517;28;20424;-68
2023/04/07 12:55:56;;;;;;;;;;;;;;;;;;4981444;28;20012;-70
2023/04/07 12:58:22;;;;;;;;;;;;;;;;;;4980340;28;21560;-70
2023/04/07 13:00:47;;;;;;;;;;;;;;;;;;4986307;28;19992;-69
2023/04/07 13:03:13;;;;;;;;;;;;;;;;;;4969757;28;19921;-69
2023/04/07 13:05:38;;;;;;;;;;;;;;;;;;4971253;28;19921;-69
2023/04/07 13:08:03;;;;;;;;;;;;;;;;;;4982285;28;19927;-70
2023/04/07 13:13:45;;;;;;;;;;;;;;;;;;4987261;28;20043;-69
2023/04/07 13:16:11;;;;;;;;;;;;;;;;;;4969133;28;20345;-69
2023/04/07 13:18:36;;;;;;;;;;;;;;;;;;4986097;28;19953;-69
2023/04/07 13:21:02;;;;;;;;;;;;;;;;;;4987542;28;20405;-66
2023/04/07 13:23:27;;;;;;;;;;;;;;;;;;4986713;28;20372;-67
2023/04/07 13:25:52;;;;;;;;;;;;;;;;;;4984471;28;19924;-68
2023/04/07 13:28:19;;;;;;;;;;;;;;;;;;4983760;28;20368;-69
2023/04/07 13:30:48;;;;;;;;;;;;;;;;;;4989145;28;20011;-67
2023/04/07 13:33:13;;;;;;;;;;;;;;;;;;4978617;28;19939;-69
2023/04/07 13:35:38;;;;;;;;;;;;;;;;;;4984159;28;20284;-69
2023/04/07 13:38:04;;;;;;;;;;;;;;;;;;4978159;28;19921;-69
2023/04/07 13:40:29;;;;;;;;;;;;;;;;;;4987081;28;19944;-69
2023/04/07 13:42:56;;;;;;;;;;;;;;;;;;4992489;28;19944;-70
2023/04/07 13:45:21;;;;;;;;;;;;;;;;;;4989342;28;19925;-69
2023/04/07 13:47:46;;;;;;;;;;;;;;;;;;4985337;28;20502;-70
2023/04/07 13:50:12;;;;;;;;;;;;;;;;;;4974120;28;19980;-68
2023/04/07 13:52:37;;;;;;;;;;;;;;;;;;4985362;28;19925;-69
2023/04/07 13:55:04;;;;;;;;;;;;;;;;;;4986354;28;19917;-69
2023/04/07 13:57:29;;;;;;;;;;;;;;;;;;4976613;28;20421;-69
2023/04/07 13:59:55;;;;;;;;;;;;;;;;;;4987055;28;19921;-68
2023/04/07 14:02:21;;;;;;;;;;;;;;;;;;4982347;28;19924;-70
2023/04/07 14:04:46;;;;;;;;;;;;;;;;;;4970307;28;19922;-68
2023/04/07 14:07:12;;;;;;;;;;;;;;;;;;4972202;28;19944;-69
2023/04/07 14:09:41;;;;;;;;;;;;;;;;;;4979402;28;20400;-69
2023/04/07 14:15:23;;;;;;;;;;;;;;;;;;4987494;28;20091;-69
2023/04/07 14:17:49;;;;;;;;;;;;;;;;;;4985827;28;19929;-69
2023/04/07 14:20:14;;;;;;;;;;;;;;;;;;4986833;28;19980;-70
2023/04/07 14:22:40;;;;;;;;;;;;;;;;;;4971774;28;19925;-69
2023/04/07 14:25:05;;;;;;;;;;;;;;;;;;4973500;28;19922;-69
2023/04/07 14:27:33;;;;;;;;;;;;;;;;;;4985378;28;20668;-69
2023/04/07 14:30:01;;;;;;;;;;;;;;;;;;4985624;28;19968;-69
2023/04/07 14:32:32;;;;;;;;;;;;;;;;;;4986220;28;20260;-69
2023/04/07 14:35:00;;;;;;;;;;;;;;;;;;4968207;28;20100;-70
2023/04/07 14:37:27;;;;;;;;;;;;;;;;;;4984851;28;19979;-68
2023/04/07 14:39:53;;;;;;;;;;;;;;;;;;4971735;28;19976;-69
2023/04/07 14:42:18;;;;;;;;;;;;;;;;;;4984557;28;19987;-70
2023/04/07 14:44:43;;;;;;;;;;;;;;;;;;4971261;28;19924;-69
2023/04/07 14:47:09;;;;;;;;;;;;;;;;;;4992591;28;20381;-70
2023/04/07 14:49:37;;;;;;;;;;;;;;;;;;4986167;28;19918;-69
2023/04/07 14:52:02;;;;;;;;;;;;;;;;;;4971020;28;19922;-68
2023/04/07 14:54:28;;;;;;;;;;;;;;;;;;4977108;28;19918;-68
2023/04/07 14:56:53;;;;;;;;;;;;;;;;;;4987948;28;19932;-70
2023/04/07 14:59:19;;;;;;;;;;;;;;;;;;4986915;28;20491;-68
2023/04/07 15:01:44;;;;;;;;;;;;;;;;;;4985851;28;19920;-69
2023/04/07 15:04:15;;;;;;;;;;;;;;;;;;4983909;28;19952;-69
2023/04/07 15:06:41;;;;;;;;;;;;;;;;;;4984196;28;19921;-67
2023/04/07 15:09:07;;;;;;;;;;;;;;;;;;4968226;28;21588;-69
2023/04/07 15:11:34;;;;;;;;;;;;;;;;;;4991564;28;19928;-69
2023/04/07 15:14:00;;;;;;;;;;;;;;;;;;4986574;28;20292;-68
2023/04/07 15:16:25;;;;;;;;;;;;;;;;;;4982528;28;20296;-68
2023/04/07 15:18:51;;;;;;;;;;;;;;;;;;4993891;28;19917;-69
2023/04/07 15:21:17;;;;;;;;;;;;;;;;;;4992506;28;19922;-69
2023/04/07 15:23:42;;;;;;;;;;;;;;;;;;4992268;28;19925;-69
2023/04/07 15:26:08;;;;;;;;;;;;;;;;;;4985250;28;19975;-69
2023/04/07 15:28:33;;;;;;;;;;;;;;;;;;4968553;28;20013;-69
2023/04/07 15:31:01;;;;;;;;;;;;;;;;;;4992631;28;19926;-69
2023/04/07 15:33:26;;;;;;;;;;;;;;;;;;4992176;28;19922;-69
2023/04/07 15:35:52;;;;;;;;;;;;;;;;;;4985964;28;19922;-69
2023/04/07 15:41:09;;;;;;;;;;;;;;;;;;4988501;28;19921;-69
2023/04/07 15:46:52;;;;;;;;;;;;;;;;;;4985097;28;20028;-69
2023/04/07 15:49:21;;;;;;;;;;;;;;;;;;4984765;28;19925;-68
2023/04/07 15:51:46;;;;;;;;;;;;;;;;;;4986323;28;19917;-69
2023/04/07 15:54:11;;;;;;;;;;;;;;;;;;4975741;28;19932;-68
2023/04/07 15:56:39;;;;;;;;;;;;;;;;;;4990533;28;19932;-71
2023/04/07 15:59:05;;;;;;;;;;;;;;;;;;4985414;28;19921;-69
2023/04/07 16:01:30;;;;;;;;;;;;;;;;;;4984527;28;20297;-69
2023/04/07 16:03:56;;;;;;;;;;;;;;;;;;4984456;28;19927;-68
2023/04/07 16:06:21;;;;;;;;;;;;;;;;;;4983732;28;19983;-68
2023/04/07 16:08:46;;;;;;;;;;;;;;;;;;4971192;28;20016;-66
2023/04/07 16:11:11;;;;;;;;;;;;;;;;;;4983414;28;20505;-69
2023/04/07 16:13:37;;;;;;;;;;;;;;;;;;4975923;28;19924;-66
2023/04/07 16:16:06;;;;;;;;;;;;;;;;;;4971931;28;19926;-66
2023/04/07 16:18:31;;;;;;;;;;;;;;;;;;4975869;28;20061;-67
2023/04/07 16:20:56;;;;;;;;;;;;;;;;;;4970382;28;20204;-66
2023/04/07 16:23:22;;;;;;;;;;;;;;;;;;4983159;28;19921;-68
2023/04/07 16:25:47;;;;;;;;;;;;;;;;;;4983418;28;20050;-68
2023/04/07 16:28:13;;;;;;;;;;;;;;;;;;4980202;28;20020;-68
2023/04/07 16:30:38;;;;;;;;;;;;;;;;;;4983747;28;19918;-68
2023/04/07 16:33:04;;;;;;;;;;;;;;;;;;4983891;28;19933;-69
2023/04/07 16:35:30;;;;;;;;;;;;;;;;;;4991400;28;19924;-68
2023/04/07 16:38:02;;;;;;;;;;;;;;;;;;4981183;28;20014;-68
2023/04/07 16:40:27;;;;;;;;;;;;;;;;;;4984334;28;19917;-68
2023/04/07 16:42:52;;;;;;;;;;;;;;;;;;4990879;28;19997;-70
2023/04/07 16:45:18;;;;;;;;;;;;;;;;;;4970102;28;19921;-68
2023/04/07 16:47:43;;;;;;;;;;;;;;;;;;4984174;28;20079;-68
2023/04/07 16:50:08;;;;;;;;;;;;;;;;;;4992108;28;19922;-69
2023/04/07 16:52:39;;;;;;;;;;;;;;;;;;4989440;28;19924;-68
2023/04/07 16:55:04;;;;;;;;;;;;;;;;;;4985229;28;19950;-68
2023/04/07 16:57:32;;;;;;;;;;;;;;;;;;4987480;28;19936;-69
2023/04/07 17:00:01;;;;;;;;;;;;;;;;;;4987771;28;19961;-69